Terminal Aerodrome Forecast
Issued by NWS

Home | Current Version | Previous Version | Text Only | Print | Product List | Glossary On
Versions: 1 2 3 4 5 6 7 8 9 10 11 12 13 14 15 16 17 18 19 20 21 22 23 24 25 26 27 28 29 30 31
000
FTUS46 KOTX 250003 AAA
TAFMWH
TAF AMD
KMWH 250003Z 2500/2524 VRB03KT P6SM OVC008
      TEMPO 2500/2503 3SM BR
     FM250400 35002KT 1SM BR OVC004
     FM250700 31003KT 1/2SM FZFG OVC001
     FM252100 32003KT 4SM BR OVC007=

USA.gov is the U.S. government's official web portal to all federal, state and local government web resources and services.